sensor_id;sensor_type;location;lat;lon;timestamp;P1;durP1;ratioP1;P2;durP2;ratioP2
64252;SDS011;50592;52.958;-7.470;2023-07-09T00:00:01;19.58;;;2.17;;
64252;SDS011;50592;52.958;-7.470;2023-07-09T00:02:28;12.13;;;2.47;;
64252;SDS011;50592;52.958;-7.470;2023-07-09T00:04:54;14.60;;;2.17;;
64252;SDS011;50592;52.958;-7.470;2023-07-09T00:07:30;13.77;;;2.67;;
64252;SDS011;50592;52.958;-7.470;2023-07-09T00:09:57;16.48;;;2.72;;
64252;SDS011;50592;52.958;-7.470;2023-07-09T00:12:24;19.20;;;2.90;;
64252;SDS011;50592;52.958;-7.470;2023-07-09T00:14:50;13.25;;;1.95;;
64252;SDS011;50592;52.958;-7.470;2023-07-09T00:17:30;16.45;;;2.15;;
64252;SDS011;50592;52.958;-7.470;2023-07-09T00:19:59;19.17;;;2.35;;
64252;SDS011;50592;52.958;-7.470;2023-07-09T00:22:25;20.73;;;2.75;;
64252;SDS011;50592;52.958;-7.470;2023-07-09T00:24:52;14.65;;;2.33;;
64252;SDS011;50592;52.958;-7.470;2023-07-09T00:27:23;11.98;;;2.60;;
64252;SDS011;50592;52.958;-7.470;2023-07-09T00:29:53;18.58;;;2.80;;
64252;SDS011;50592;52.958;-7.470;2023-07-09T00:32:19;12.55;;;2.78;;
64252;SDS011;50592;52.958;-7.470;2023-07-09T00:34:50;13.55;;;2.72;;
64252;SDS011;50592;52.958;-7.470;2023-07-09T00:37:19;19.55;;;2.67;;
64252;SDS011;50592;52.958;-7.470;2023-07-09T00:39:46;16.70;;;2.20;;
64252;SDS011;50592;52.958;-7.470;2023-07-09T00:42:18;14.02;;;2.10;;
64252;SDS011;50592;52.958;-7.470;2023-07-09T00:44:46;13.18;;;2.58;;
64252;SDS011;50592;52.958;-7.470;2023-07-09T00:52:43;16.88;;;3.08;;
64252;SDS011;50592;52.958;-7.470;2023-07-09T00:55:17;21.25;;;3.17;;
64252;SDS011;50592;52.958;-7.470;2023-07-09T00:57:47;16.27;;;2.33;;
64252;SDS011;50592;52.958;-7.470;2023-07-09T01:00:22;20.73;;;2.85;;
64252;SDS011;50592;52.958;-7.470;2023-07-09T01:02:53;19.67;;;4.00;;
64252;SDS011;50592;52.958;-7.470;2023-07-09T01:05:19;15.57;;;2.55;;
64252;SDS011;50592;52.958;-7.470;2023-07-09T01:07:45;14.52;;;3.00;;
64252;SDS011;50592;52.958;-7.470;2023-07-09T01:10:16;20.33;;;2.35;;
64252;SDS011;50592;52.958;-7.470;2023-07-09T01:12:44;20.33;;;2.67;;
64252;SDS011;50592;52.958;-7.470;2023-07-09T01:15:12;12.77;;;2.45;;
64252;SDS011;50592;52.958;-7.470;2023-07-09T01:17:40;10.75;;;2.10;;
64252;SDS011;50592;52.958;-7.470;2023-07-09T01:20:14;16.05;;;2.25;;
64252;SDS011;50592;52.958;-7.470;2023-07-09T01:22:45;15.82;;;2.90;;
64252;SDS011;50592;52.958;-7.470;2023-07-09T01:25:14;19.17;;;2.70;;
64252;SDS011;50592;52.958;-7.470;2023-07-09T01:27:41;17.48;;;3.20;;
64252;SDS011;50592;52.958;-7.470;2023-07-09T01:30:12;13.75;;;2.25;;
64252;SDS011;50592;52.958;-7.470;2023-07-09T01:32:49;14.23;;;2.47;;
64252;SDS011;50592;52.958;-7.470;2023-07-09T01:35:18;12.55;;;1.67;;
64252;SDS011;50592;52.958;-7.470;2023-07-09T01:37:46;14.60;;;2.40;;
64252;SDS011;50592;52.958;-7.470;2023-07-09T01:40:14;9.90;;;1.80;;
64252;SDS011;50592;52.958;-7.470;2023-07-09T01:42:42;13.80;;;2.38;;
64252;SDS011;50592;52.958;-7.470;2023-07-09T01:45:08;9.00;;;2.30;;
64252;SDS011;50592;52.958;-7.470;2023-07-09T01:47:38;13.07;;;2.70;;
64252;SDS011;50592;52.958;-7.470;2023-07-09T01:50:05;19.27;;;2.97;;
64252;SDS011;50592;52.958;-7.470;2023-07-09T01:52:32;17.50;;;3.22;;
64252;SDS011;50592;52.958;-7.470;2023-07-09T01:55:00;25.10;;;2.95;;
64252;SDS011;50592;52.958;-7.470;2023-07-09T01:57:30;20.80;;;2.75;;
64252;SDS011;50592;52.958;-7.470;2023-07-09T02:00:01;13.02;;;2.35;;
64252;SDS011;50592;52.958;-7.470;2023-07-09T02:02:43;26.58;;;3.42;;
64252;SDS011;50592;52.958;-7.470;2023-07-09T02:05:15;21.63;;;2.92;;
64252;SDS011;50592;52.958;-7.470;2023-07-09T02:07:44;20.13;;;3.13;;
64252;SDS011;50592;52.958;-7.470;2023-07-09T02:10:10;21.75;;;3.58;;
64252;SDS011;50592;52.958;-7.470;2023-07-09T02:12:36;20.42;;;4.45;;
64252;SDS011;50592;52.958;-7.470;2023-07-09T02:15:02;20.92;;;3.53;;
64252;SDS011;50592;52.958;-7.470;2023-07-09T02:17:30;16.58;;;2.95;;
64252;SDS011;50592;52.958;-7.470;2023-07-09T02:19:55;26.00;;;3.67;;
64252;SDS011;50592;52.958;-7.470;2023-07-09T02:22:22;22.40;;;3.47;;
64252;SDS011;50592;52.958;-7.470;2023-07-09T02:24:47;19.63;;;3.72;;
64252;SDS011;50592;52.958;-7.470;2023-07-09T02:27:14;15.55;;;3.17;;
64252;SDS011;50592;52.958;-7.470;2023-07-09T02:29:43;19.05;;;3.75;;
64252;SDS011;50592;52.958;-7.470;2023-07-09T02:32:09;15.20;;;2.88;;
64252;SDS011;50592;52.958;-7.470;2023-07-09T02:34:38;10.73;;;2.53;;
64252;SDS011;50592;52.958;-7.470;2023-07-09T02:37:04;14.98;;;2.72;;
64252;SDS011;50592;52.958;-7.470;2023-07-09T02:39:30;19.60;;;3.28;;
64252;SDS011;50592;52.958;-7.470;2023-07-09T02:41:56;16.98;;;2.38;;
64252;SDS011;50592;52.958;-7.470;2023-07-09T02:44:22;21.65;;;3.53;;
64252;SDS011;50592;52.958;-7.470;2023-07-09T02:46:48;18.95;;;4.15;;
64252;SDS011;50592;52.958;-7.470;2023-07-09T02:49:14;24.30;;;3.85;;
64252;SDS011;50592;52.958;-7.470;2023-07-09T02:51:41;19.90;;;4.53;;
64252;SDS011;50592;52.958;-7.470;2023-07-09T02:54:07;19.30;;;3.22;;
64252;SDS011;50592;52.958;-7.470;2023-07-09T02:56:33;15.88;;;3.58;;
64252;SDS011;50592;52.958;-7.470;2023-07-09T02:58:59;23.52;;;3.97;;
64252;SDS011;50592;52.958;-7.470;2023-07-09T03:01:25;15.77;;;3.05;;
64252;SDS011;50592;52.958;-7.470;2023-07-09T03:03:53;19.15;;;2.65;;
64252;SDS011;50592;52.958;-7.470;2023-07-09T03:06:25;16.95;;;2.63;;
64252;SDS011;50592;52.958;-7.470;2023-07-09T03:08:52;9.27;;;2.28;;
64252;SDS011;50592;52.958;-7.470;2023-07-09T03:11:18;10.75;;;2.70;;
64252;SDS011;50592;52.958;-7.470;2023-07-09T03:13:45;15.35;;;2.53;;
64252;SDS011;50592;52.958;-7.470;2023-07-09T03:16:11;13.00;;;2.83;;
64252;SDS011;50592;52.958;-7.470;2023-07-09T03:18:37;25.27;;;3.22;;
64252;SDS011;50592;52.958;-7.470;2023-07-09T03:21:03;16.75;;;3.03;;
64252;SDS011;50592;52.958;-7.470;2023-07-09T03:23:29;22.70;;;2.58;;
64252;SDS011;50592;52.958;-7.470;2023-07-09T03:25:56;23.10;;;3.28;;
64252;SDS011;50592;52.958;-7.470;2023-07-09T03:28:22;19.23;;;2.72;;
64252;SDS011;50592;52.958;-7.470;2023-07-09T03:30:48;16.23;;;2.60;;
64252;SDS011;50592;52.958;-7.470;2023-07-09T03:33:16;16.25;;;2.92;;
64252;SDS011;50592;52.958;-7.470;2023-07-09T03:35:42;18.45;;;2.65;;
64252;SDS011;50592;52.958;-7.470;2023-07-09T03:38:09;17.33;;;2.40;;
64252;SDS011;50592;52.958;-7.470;2023-07-09T03:40:35;11.30;;;2.65;;
64252;SDS011;50592;52.958;-7.470;2023-07-09T03:43:06;12.23;;;2.60;;
64252;SDS011;50592;52.958;-7.470;2023-07-09T03:45:34;18.98;;;2.75;;
64252;SDS011;50592;52.958;-7.470;2023-07-09T03:48:01;21.08;;;2.92;;
64252;SDS011;50592;52.958;-7.470;2023-07-09T03:50:27;10.32;;;2.25;;
64252;SDS011;50592;52.958;-7.470;2023-07-09T03:52:53;13.85;;;2.72;;
64252;SDS011;50592;52.958;-7.470;2023-07-09T03:55:19;10.73;;;2.10;;
64252;SDS011;50592;52.958;-7.470;2023-07-09T03:57:46;9.15;;;2.17;;
64252;SDS011;50592;52.958;-7.470;2023-07-09T04:00:12;17.67;;;2.67;;
64252;SDS011;50592;52.958;-7.470;2023-07-09T04:02:42;9.75;;;2.25;;
64252;SDS011;50592;52.958;-7.470;2023-07-09T04:05:10;12.27;;;2.70;;
64252;SDS011;50592;52.958;-7.470;2023-07-09T04:07:37;19.13;;;3.13;;
64252;SDS011;50592;52.958;-7.470;2023-07-09T04:10:05;16.67;;;2.85;;
64252;SDS011;50592;52.958;-7.470;2023-07-09T04:12:32;11.50;;;2.45;;
64252;SDS011;50592;52.958;-7.470;2023-07-09T04:14:58;17.30;;;3.00;;
64252;SDS011;50592;52.958;-7.470;2023-07-09T04:17:24;14.00;;;2.75;;
64252;SDS011;50592;52.958;-7.470;2023-07-09T04:19:50;11.32;;;2.80;;
64252;SDS011;50592;52.958;-7.470;2023-07-09T04:22:16;20.00;;;3.08;;
64252;SDS011;50592;52.958;-7.470;2023-07-09T04:24:43;9.48;;;2.30;;
64252;SDS011;50592;52.958;-7.470;2023-07-09T04:27:09;12.48;;;2.95;;
64252;SDS011;50592;52.958;-7.470;2023-07-09T04:29:36;11.82;;;2.67;;
64252;SDS011;50592;52.958;-7.470;2023-07-09T04:32:07;12.23;;;2.42;;
64252;SDS011;50592;52.958;-7.470;2023-07-09T04:34:38;12.45;;;2.63;;
64252;SDS011;50592;52.958;-7.470;2023-07-09T04:37:08;18.48;;;2.70;;
64252;SDS011;50592;52.958;-7.470;2023-07-09T04:39:35;9.95;;;2.40;;
64252;SDS011;50592;52.958;-7.470;2023-07-09T04:42:03;10.68;;;2.58;;
64252;SDS011;50592;52.958;-7.470;2023-07-09T04:44:31;10.65;;;2.83;;
64252;SDS011;50592;52.958;-7.470;2023-07-09T04:46:56;8.65;;;2.58;;
64252;SDS011;50592;52.958;-7.470;2023-07-09T04:49:23;13.02;;;2.88;;
64252;SDS011;50592;52.958;-7.470;2023-07-09T04:51:48;13.85;;;2.50;;
64252;SDS011;50592;52.958;-7.470;2023-07-09T04:54:14;9.48;;;2.33;;
64252;SDS011;50592;52.958;-7.470;2023-07-09T04:56:40;15.43;;;3.60;;
64252;SDS011;50592;52.958;-7.470;2023-07-09T04:59:10;17.27;;;3.13;;
64252;SDS011;50592;52.958;-7.470;2023-07-09T05:01:37;14.02;;;3.15;;
64252;SDS011;50592;52.958;-7.470;2023-07-09T05:04:03;12.23;;;3.15;;
64252;SDS011;50592;52.958;-7.470;2023-07-09T05:06:29;18.70;;;4.10;;
64252;SDS011;50592;52.958;-7.470;2023-07-09T05:08:55;16.42;;;3.17;;
64252;SDS011;50592;52.958;-7.470;2023-07-09T05:11:21;19.55;;;3.92;;
64252;SDS011;50592;52.958;-7.470;2023-07-09T05:13:47;18.95;;;3.17;;
64252;SDS011;50592;52.958;-7.470;2023-07-09T05:16:12;18.95;;;4.03;;
64252;SDS011;50592;52.958;-7.470;2023-07-09T05:18:39;23.20;;;3.72;;
64252;SDS011;50592;52.958;-7.470;2023-07-09T05:21:05;17.30;;;3.08;;
64252;SDS011;50592;52.958;-7.470;2023-07-09T05:23:30;20.48;;;3.17;;
64252;SDS011;50592;52.958;-7.470;2023-07-09T05:26:00;18.45;;;2.75;;
64252;SDS011;50592;52.958;-7.470;2023-07-09T05:28:27;18.60;;;3.47;;
64252;SDS011;50592;52.958;-7.470;2023-07-09T05:30:54;22.58;;;4.00;;
64252;SDS011;50592;52.958;-7.470;2023-07-09T05:33:20;16.00;;;3.10;;
64252;SDS011;50592;52.958;-7.470;2023-07-09T05:35:46;20.15;;;3.10;;
64252;SDS011;50592;52.958;-7.470;2023-07-09T05:38:13;18.95;;;3.20;;
64252;SDS011;50592;52.958;-7.470;2023-07-09T05:40:39;21.02;;;3.20;;
64252;SDS011;50592;52.958;-7.470;2023-07-09T05:43:05;20.55;;;3.58;;
64252;SDS011;50592;52.958;-7.470;2023-07-09T05:45:31;20.40;;;3.40;;
64252;SDS011;50592;52.958;-7.470;2023-07-09T05:48:01;20.15;;;3.05;;
64252;SDS011;50592;52.958;-7.470;2023-07-09T05:50:27;13.25;;;2.63;;
64252;SDS011;50592;52.958;-7.470;2023-07-09T05:52:54;28.95;;;3.92;;
64252;SDS011;50592;52.958;-7.470;2023-07-09T05:55:20;26.00;;;3.58;;
64252;SDS011;50592;52.958;-7.470;2023-07-09T05:57:46;24.60;;;3.80;;
64252;SDS011;50592;52.958;-7.470;2023-07-09T06:00:12;18.70;;;2.95;;
64252;SDS011;50592;52.958;-7.470;2023-07-09T06:02:42;22.92;;;3.75;;
64252;SDS011;50592;52.958;-7.470;2023-07-09T06:05:08;20.38;;;3.42;;
64252;SDS011;50592;52.958;-7.470;2023-07-09T06:07:37;22.85;;;3.47;;
64252;SDS011;50592;52.958;-7.470;2023-07-09T06:10:05;20.73;;;3.30;;
64252;SDS011;50592;52.958;-7.470;2023-07-09T06:12:33;18.02;;;3.20;;
64252;SDS011;50592;52.958;-7.470;2023-07-09T06:14:59;21.10;;;3.78;;
64252;SDS011;50592;52.958;-7.470;2023-07-09T06:17:25;23.77;;;3.05;;
64252;SDS011;50592;52.958;-7.470;2023-07-09T06:19:51;15.43;;;3.05;;
64252;SDS011;50592;52.958;-7.470;2023-07-09T06:22:16;20.30;;;3.33;;
64252;SDS011;50592;52.958;-7.470;2023-07-09T06:24:42;28.10;;;3.25;;
64252;SDS011;50592;52.958;-7.470;2023-07-09T06:27:10;19.55;;;3.30;;
64252;SDS011;50592;52.958;-7.470;2023-07-09T06:29:36;18.38;;;3.65;;
64252;SDS011;50592;52.958;-7.470;2023-07-09T06:32:02;17.20;;;2.90;;
64252;SDS011;50592;52.958;-7.470;2023-07-09T06:34:29;23.05;;;3.55;;
64252;SDS011;50592;52.958;-7.470;2023-07-09T06:36:56;25.05;;;3.28;;
64252;SDS011;50592;52.958;-7.470;2023-07-09T06:39:22;24.33;;;3.53;;
64252;SDS011;50592;52.958;-7.470;2023-07-09T06:41:49;14.82;;;3.28;;
64252;SDS011;50592;52.958;-7.470;2023-07-09T06:44:53;7.80;;;1.92;;
64252;SDS011;50592;52.958;-7.470;2023-07-09T06:47:19;9.32;;;0.60;;
64252;SDS011;50592;52.958;-7.470;2023-07-09T06:49:45;2.83;;;0.80;;
64252;SDS011;50592;52.958;-7.470;2023-07-09T06:52:11;7.95;;;1.08;;
64252;SDS011;50592;52.958;-7.470;2023-07-09T06:54:37;6.38;;;0.70;;
64252;SDS011;50592;52.958;-7.470;2023-07-09T06:57:03;7.15;;;0.63;;
64252;SDS011;50592;52.958;-7.470;2023-07-09T06:59:29;2.30;;;0.50;;
64252;SDS011;50592;52.958;-7.470;2023-07-09T07:01:55;1.70;;;0.40;;
64252;SDS011;50592;52.958;-7.470;2023-07-09T07:04:21;1.48;;;0.40;;
64252;SDS011;50592;52.958;-7.470;2023-07-09T07:06:47;3.95;;;0.70;;
64252;SDS011;50592;52.958;-7.470;2023-07-09T07:09:13;0.55;;;0.28;;
64252;SDS011;50592;52.958;-7.470;2023-07-09T07:11:38;2.33;;;0.17;;
64252;SDS011;50592;52.958;-7.470;2023-07-09T07:14:04;0.93;;;0.20;;
64252;SDS011;50592;52.958;-7.470;2023-07-09T07:16:30;2.03;;;0.38;;
64252;SDS011;50592;52.958;-7.470;2023-07-09T07:18:56;0.80;;;0.30;;
64252;SDS011;50592;52.958;-7.470;2023-07-09T07:21:21;1.70;;;0.28;;
64252;SDS011;50592;52.958;-7.470;2023-07-09T07:23:47;1.08;;;0.20;;
64252;SDS011;50592;52.958;-7.470;2023-07-09T07:26:13;5.28;;;0.50;;
64252;SDS011;50592;52.958;-7.470;2023-07-09T07:28:39;2.40;;;0.35;;
64252;SDS011;50592;52.958;-7.470;2023-07-09T07:31:07;1.90;;;0.30;;
64252;SDS011;50592;52.958;-7.470;2023-07-09T07:33:35;1.90;;;0.32;;
64252;SDS011;50592;52.958;-7.470;2023-07-09T07:36:04;2.38;;;0.52;;
64252;SDS011;50592;52.958;-7.470;2023-07-09T07:38:30;1.63;;;0.15;;
64252;SDS011;50592;52.958;-7.470;2023-07-09T07:40:56;7.60;;;0.50;;
64252;SDS011;50592;52.958;-7.470;2023-07-09T07:43:22;1.38;;;0.20;;
64252;SDS011;50592;52.958;-7.470;2023-07-09T07:45:48;1.30;;;0.32;;
64252;SDS011;50592;52.958;-7.470;2023-07-09T07:48:14;2.05;;;0.35;;
64252;SDS011;50592;52.958;-7.470;2023-07-09T07:50:40;3.35;;;0.30;;
64252;SDS011;50592;52.958;-7.470;2023-07-09T07:53:06;0.50;;;0.10;;
64252;SDS011;50592;52.958;-7.470;2023-07-09T07:55:34;3.15;;;0.50;;
64252;SDS011;50592;52.958;-7.470;2023-07-09T07:58:00;1.23;;;0.30;;
64252;SDS011;50592;52.958;-7.470;2023-07-09T08:00:30;7.68;;;0.40;;
64252;SDS011;50592;52.958;-7.470;2023-07-09T08:02:56;0.75;;;0.28;;
64252;SDS011;50592;52.958;-7.470;2023-07-09T08:05:22;1.92;;;0.20;;
64252;SDS011;50592;52.958;-7.470;2023-07-09T08:07:48;1.13;;;0.30;;
64252;SDS011;50592;52.958;-7.470;2023-07-09T08:10:15;2.78;;;0.20;;
64252;SDS011;50592;52.958;-7.470;2023-07-09T08:12:41;1.08;;;0.20;;
64252;SDS011;50592;52.958;-7.470;2023-07-09T08:15:07;1.45;;;0.43;;
64252;SDS011;50592;52.958;-7.470;2023-07-09T08:17:33;1.20;;;0.22;;
64252;SDS011;50592;52.958;-7.470;2023-07-09T08:19:59;2.10;;;0.30;;
64252;SDS011;50592;52.958;-7.470;2023-07-09T08:22:26;0.45;;;0.20;;
64252;SDS011;50592;52.958;-7.470;2023-07-09T08:24:52;1.98;;;0.40;;
64252;SDS011;50592;52.958;-7.470;2023-07-09T08:27:18;1.00;;;0.20;;
64252;SDS011;50592;52.958;-7.470;2023-07-09T08:29:44;0.95;;;0.20;;
64252;SDS011;50592;52.958;-7.470;2023-07-09T08:32:10;1.05;;;0.30;;
64252;SDS011;50592;52.958;-7.470;2023-07-09T08:34:37;1.17;;;0.25;;
64252;SDS011;50592;52.958;-7.470;2023-07-09T08:37:05;1.48;;;0.20;;
64252;SDS011;50592;52.958;-7.470;2023-07-09T08:39:32;1.10;;;0.15;;
64252;SDS011;50592;52.958;-7.470;2023-07-09T08:47:29;1.40;;;0.30;;
64252;SDS011;50592;52.958;-7.470;2023-07-09T08:50:09;0.80;;;0.20;;
64252;SDS011;50592;52.958;-7.470;2023-07-09T08:52:40;1.27;;;0.20;;
64252;SDS011;50592;52.958;-7.470;2023-07-09T08:55:11;0.20;;;0.20;;
64252;SDS011;50592;52.958;-7.470;2023-07-09T08:57:45;1.38;;;0.20;;
64252;SDS011;50592;52.958;-7.470;2023-07-09T09:00:17;1.00;;;0.20;;
64252;SDS011;50592;52.958;-7.470;2023-07-09T09:05:20;0.82;;;0.28;;
64252;SDS011;50592;52.958;-7.470;2023-07-09T09:07:52;1.27;;;0.35;;
64252;SDS011;50592;52.958;-7.470;2023-07-09T09:13:02;1.77;;;0.20;;
64252;SDS011;50592;52.958;-7.470;2023-07-09T09:15:36;3.47;;;0.20;;
64252;SDS011;50592;52.958;-7.470;2023-07-09T09:20:44;0.73;;;0.15;;
64252;SDS011;50592;52.958;-7.470;2023-07-09T09:23:18;2.15;;;0.47;;
64252;SDS011;50592;52.958;-7.470;2023-07-09T09:25:45;2.38;;;0.30;;
64252;SDS011;50592;52.958;-7.470;2023-07-09T09:28:17;8.05;;;0.73;;
64252;SDS011;50592;52.958;-7.470;2023-07-09T09:30:43;2.17;;;0.43;;
64252;SDS011;50592;52.958;-7.470;2023-07-09T09:33:09;4.18;;;0.57;;
64252;SDS011;50592;52.958;-7.470;2023-07-09T09:35:40;3.40;;;0.40;;
64252;SDS011;50592;52.958;-7.470;2023-07-09T09:38:10;2.72;;;0.35;;
64252;SDS011;50592;52.958;-7.470;2023-07-09T09:40:37;4.03;;;0.60;;
64252;SDS011;50592;52.958;-7.470;2023-07-09T09:43:31;1.73;;;0.50;;
64252;SDS011;50592;52.958;-7.470;2023-07-09T09:45:56;2.80;;;0.35;;
64252;SDS011;50592;52.958;-7.470;2023-07-09T09:48:29;3.50;;;0.52;;
64252;SDS011;50592;52.958;-7.470;2023-07-09T09:50:57;2.78;;;0.55;;
64252;SDS011;50592;52.958;-7.470;2023-07-09T09:53:28;2.95;;;0.43;;
64252;SDS011;50592;52.958;-7.470;2023-07-09T09:55:56;4.20;;;0.60;;
64252;SDS011;50592;52.958;-7.470;2023-07-09T09:58:29;2.83;;;0.82;;
64252;SDS011;50592;52.958;-7.470;2023-07-09T10:00:57;3.17;;;0.55;;
64252;SDS011;50592;52.958;-7.470;2023-07-09T10:03:34;3.60;;;0.60;;
64252;SDS011;50592;52.958;-7.470;2023-07-09T10:06:15;2.28;;;0.50;;
64252;SDS011;50592;52.958;-7.470;2023-07-09T10:11:30;3.22;;;0.50;;
64252;SDS011;50592;52.958;-7.470;2023-07-09T10:14:13;2.45;;;0.60;;
64252;SDS011;50592;52.958;-7.470;2023-07-09T10:16:45;2.05;;;0.50;;
64252;SDS011;50592;52.958;-7.470;2023-07-09T10:19:21;2.95;;;0.90;;
64252;SDS011;50592;52.958;-7.470;2023-07-09T10:33:28;3.90;;;0.50;;
64252;SDS011;50592;52.958;-7.470;2023-07-09T10:41:36;4.50;;;0.73;;
64252;SDS011;50592;52.958;-7.470;2023-07-09T10:46:35;4.35;;;0.65;;
64252;SDS011;50592;52.958;-7.470;2023-07-09T10:49:04;4.13;;;0.40;;
64252;SDS011;50592;52.958;-7.470;2023-07-09T10:51:39;4.55;;;0.43;;
64252;SDS011;50592;52.958;-7.470;2023-07-09T10:59:48;2.83;;;0.60;;
64252;SDS011;50592;52.958;-7.470;2023-07-09T11:02:21;3.63;;;0.57;;
64252;SDS011;50592;52.958;-7.470;2023-07-09T11:04:54;3.50;;;0.57;;
64252;SDS011;50592;52.958;-7.470;2023-07-09T11:07:27;6.05;;;1.00;;
64252;SDS011;50592;52.958;-7.470;2023-07-09T11:10:06;7.00;;;0.63;;
64252;SDS011;50592;52.958;-7.470;2023-07-09T11:12:41;5.75;;;0.75;;
64252;SDS011;50592;52.958;-7.470;2023-07-09T11:15:12;4.10;;;0.40;;
64252;SDS011;50592;52.958;-7.470;2023-07-09T11:17:43;2.17;;;0.43;;
64252;SDS011;50592;52.958;-7.470;2023-07-09T11:20:32;2.83;;;0.50;;
64252;SDS011;50592;52.958;-7.470;2023-07-09T11:23:04;2.33;;;0.55;;
64252;SDS011;50592;52.958;-7.470;2023-07-09T11:25:46;3.28;;;0.65;;
64252;SDS011;50592;52.958;-7.470;2023-07-09T11:28:13;4.10;;;0.70;;
64252;SDS011;50592;52.958;-7.470;2023-07-09T11:30:50;5.30;;;0.57;;
64252;SDS011;50592;52.958;-7.470;2023-07-09T11:33:25;4.53;;;0.60;;
64252;SDS011;50592;52.958;-7.470;2023-07-09T11:35:54;3.72;;;0.55;;
64252;SDS011;50592;52.958;-7.470;2023-07-09T11:38:41;2.20;;;0.45;;
64252;SDS011;50592;52.958;-7.470;2023-07-09T11:41:28;4.00;;;0.50;;
64252;SDS011;50592;52.958;-7.470;2023-07-09T11:49:27;7.80;;;0.52;;
64252;SDS011;50592;52.958;-7.470;2023-07-09T11:52:00;5.80;;;0.93;;
64252;SDS011;50592;52.958;-7.470;2023-07-09T11:54:34;2.63;;;0.50;;
64252;SDS011;50592;52.958;-7.470;2023-07-09T11:57:02;3.83;;;0.60;;
64252;SDS011;50592;52.958;-7.470;2023-07-09T11:59:29;5.32;;;0.70;;
64252;SDS011;50592;52.958;-7.470;2023-07-09T12:01:55;4.50;;;0.73;;
64252;SDS011;50592;52.958;-7.470;2023-07-09T12:04:30;4.55;;;0.73;;
64252;SDS011;50592;52.958;-7.470;2023-07-09T12:07:00;2.35;;;0.30;;
64252;SDS011;50592;52.958;-7.470;2023-07-09T12:09:32;2.97;;;0.60;;
64252;SDS011;50592;52.958;-7.470;2023-07-09T12:12:02;2.88;;;0.70;;
64252;SDS011;50592;52.958;-7.470;2023-07-09T12:14:28;2.63;;;0.57;;
64252;SDS011;50592;52.958;-7.470;2023-07-09T12:16:54;3.67;;;0.60;;
64252;SDS011;50592;52.958;-7.470;2023-07-09T12:19:21;2.78;;;0.68;;
64252;SDS011;50592;52.958;-7.470;2023-07-09T12:21:51;4.13;;;0.40;;
64252;SDS011;50592;52.958;-7.470;2023-07-09T12:24:25;1.85;;;0.60;;
64252;SDS011;50592;52.958;-7.470;2023-07-09T12:26:58;5.45;;;0.95;;
64252;SDS011;50592;52.958;-7.470;2023-07-09T12:29:25;2.85;;;0.70;;
64252;SDS011;50592;52.958;-7.470;2023-07-09T12:31:56;2.30;;;0.40;;
64252;SDS011;50592;52.958;-7.470;2023-07-09T12:34:23;2.70;;;0.60;;
64252;SDS011;50592;52.958;-7.470;2023-07-09T12:36:50;4.43;;;0.43;;
64252;SDS011;50592;52.958;-7.470;2023-07-09T12:39:22;5.30;;;0.40;;
64252;SDS011;50592;52.958;-7.470;2023-07-09T12:41:50;3.70;;;0.40;;
64252;SDS011;50592;52.958;-7.470;2023-07-09T12:44:20;4.35;;;0.85;;
64252;SDS011;50592;52.958;-7.470;2023-07-09T12:46:48;2.20;;;0.50;;
64252;SDS011;50592;52.958;-7.470;2023-07-09T12:51:55;5.35;;;0.38;;
64252;SDS011;50592;52.958;-7.470;2023-07-09T12:54:24;1.65;;;0.68;;
64252;SDS011;50592;52.958;-7.470;2023-07-09T12:56:51;2.88;;;0.40;;
64252;SDS011;50592;52.958;-7.470;2023-07-09T12:59:22;0.80;;;0.30;;
64252;SDS011;50592;52.958;-7.470;2023-07-09T13:01:50;0.60;;;0.20;;
64252;SDS011;50592;52.958;-7.470;2023-07-09T13:04:20;2.33;;;0.30;;
64252;SDS011;50592;52.958;-7.470;2023-07-09T13:06:46;2.80;;;0.52;;
64252;SDS011;50592;52.958;-7.470;2023-07-09T13:09:18;0.88;;;0.22;;
64252;SDS011;50592;52.958;-7.470;2023-07-09T13:11:46;0.82;;;0.20;;
64252;SDS011;50592;52.958;-7.470;2023-07-09T13:14:16;1.45;;;0.22;;
64252;SDS011;50592;52.958;-7.470;2023-07-09T13:16:44;1.38;;;0.30;;
64252;SDS011;50592;52.958;-7.470;2023-07-09T13:19:10;4.03;;;0.40;;
64252;SDS011;50592;52.958;-7.470;2023-07-09T13:21:36;4.22;;;0.60;;
64252;SDS011;50592;52.958;-7.470;2023-07-09T13:24:11;2.05;;;0.30;;
64252;SDS011;50592;52.958;-7.470;2023-07-09T13:26:39;2.37;;;0.60;;
64252;SDS011;50592;52.958;-7.470;2023-07-09T13:29:15;3.80;;;0.30;;
64252;SDS011;50592;52.958;-7.470;2023-07-09T13:31:46;0.63;;;0.20;;
64252;SDS011;50592;52.958;-7.470;2023-07-09T13:34:16;2.80;;;0.47;;
64252;SDS011;50592;52.958;-7.470;2023-07-09T13:36:48;1.83;;;0.30;;
64252;SDS011;50592;52.958;-7.470;2023-07-09T13:39:15;1.83;;;0.38;;
64252;SDS011;50592;52.958;-7.470;2023-07-09T13:41:45;1.98;;;0.35;;
64252;SDS011;50592;52.958;-7.470;2023-07-09T13:44:14;1.88;;;0.43;;
64252;SDS011;50592;52.958;-7.470;2023-07-09T13:46:45;1.63;;;0.30;;
64252;SDS011;50592;52.958;-7.470;2023-07-09T13:49:14;0.90;;;0.55;;
64252;SDS011;50592;52.958;-7.470;2023-07-09T13:51:43;3.03;;;0.22;;
64252;SDS011;50592;52.958;-7.470;2023-07-09T13:54:15;2.97;;;0.30;;
64252;SDS011;50592;52.958;-7.470;2023-07-09T13:56:49;1.00;;;0.25;;
64252;SDS011;50592;52.958;-7.470;2023-07-09T13:59:19;1.30;;;0.30;;
64252;SDS011;50592;52.958;-7.470;2023-07-09T14:01:49;0.50;;;0.20;;
64252;SDS011;50592;52.958;-7.470;2023-07-09T14:04:17;1.67;;;0.40;;
64252;SDS011;50592;52.958;-7.470;2023-07-09T14:06:45;5.88;;;0.45;;
64252;SDS011;50592;52.958;-7.470;2023-07-09T14:09:14;1.85;;;0.30;;
64252;SDS011;50592;52.958;-7.470;2023-07-09T14:11:45;3.03;;;0.43;;
64252;SDS011;50592;52.958;-7.470;2023-07-09T14:14:23;2.08;;;0.40;;
64252;SDS011;50592;52.958;-7.470;2023-07-09T14:16:53;2.17;;;0.45;;
64252;SDS011;50592;52.958;-7.470;2023-07-09T14:19:20;4.88;;;0.50;;
64252;SDS011;50592;52.958;-7.470;2023-07-09T14:21:47;1.85;;;0.32;;
64252;SDS011;50592;52.958;-7.470;2023-07-09T14:24:21;6.38;;;0.77;;
64252;SDS011;50592;52.958;-7.470;2023-07-09T14:26:50;3.70;;;0.77;;
64252;SDS011;50592;52.958;-7.470;2023-07-09T14:29:16;4.53;;;1.00;;
64252;SDS011;50592;52.958;-7.470;2023-07-09T14:31:44;6.32;;;1.25;;
64252;SDS011;50592;52.958;-7.470;2023-07-09T14:36:53;2.20;;;0.50;;
64252;SDS011;50592;52.958;-7.470;2023-07-09T14:39:21;1.48;;;0.30;;
64252;SDS011;50592;52.958;-7.470;2023-07-09T14:41:47;2.40;;;0.45;;
64252;SDS011;50592;52.958;-7.470;2023-07-09T14:46:54;1.77;;;0.40;;
64252;SDS011;50592;52.958;-7.470;2023-07-09T14:49:23;4.43;;;0.50;;
64252;SDS011;50592;52.958;-7.470;2023-07-09T14:51:50;3.28;;;0.30;;
64252;SDS011;50592;52.958;-7.470;2023-07-09T14:54:23;3.20;;;0.40;;
64252;SDS011;50592;52.958;-7.470;2023-07-09T14:56:52;1.70;;;0.40;;
64252;SDS011;50592;52.958;-7.470;2023-07-09T14:59:18;1.65;;;0.40;;
64252;SDS011;50592;52.958;-7.470;2023-07-09T15:01:44;2.33;;;0.30;;
64252;SDS011;50592;52.958;-7.470;2023-07-09T15:06:50;4.00;;;0.45;;
64252;SDS011;50592;52.958;-7.470;2023-07-09T15:09:27;3.17;;;0.32;;
64252;SDS011;50592;52.958;-7.470;2023-07-09T15:11:54;1.95;;;0.40;;
64252;SDS011;50592;52.958;-7.470;2023-07-09T15:14:23;2.90;;;0.40;;
64252;SDS011;50592;52.958;-7.470;2023-07-09T15:16:50;0.98;;;0.30;;
64252;SDS011;50592;52.958;-7.470;2023-07-09T15:19:17;3.50;;;0.50;;
64252;SDS011;50592;52.958;-7.470;2023-07-09T15:21:44;2.03;;;0.60;;
64252;SDS011;50592;52.958;-7.470;2023-07-09T15:24:15;2.45;;;0.65;;
64252;SDS011;50592;52.958;-7.470;2023-07-09T15:26:59;3.13;;;0.32;;
64252;SDS011;50592;52.958;-7.470;2023-07-09T15:29:27;2.45;;;0.93;;
64252;SDS011;50592;52.958;-7.470;2023-07-09T15:31:54;1.85;;;0.77;;
64252;SDS011;50592;52.958;-7.470;2023-07-09T15:34:19;2.97;;;0.40;;
64252;SDS011;50592;52.958;-7.470;2023-07-09T15:36:46;5.78;;;0.40;;
64252;SDS011;50592;52.958;-7.470;2023-07-09T15:39:14;2.85;;;0.65;;